KCPT

Cleburne Regional Airport

Cleburne, Texas, USA
METAR KCPT 190315Z AUTO 16008KT 10SM FEW044 M00/M10 A3031 RMK AO2
Observed Flight Rules
Jan-19 @ 03:15 UTC (33 minutes ago) Visual Flight Rules
Wind Visibility Clouds
160° at 8 knots 10 miles
  • Few at 4,400' AGL
Temperatures Readings
Current 0°C / 32°F
Dewpoint -10°C / 14°F
Humidity 47%
Altimeter 30.31" Hg
Pressure 1026 hPa
Elevation 260
METAR KCPT 190315Z AUTO 16008KT 10SM FEW044 M00/M10 A3031 RMK AO2
Observed Flight Rules
Jan-19 @ 03:15 UTC
(33 minutes ago)
VFR
Wind Visibility
160° at 8 knots 10 miles
Clouds
  • Few at 4,400' AGL
Temperature Dewpoint
0°C / 32°F -10°C / 14°F
Humidity Altimeter Pressure
47% 30.31" Hg 1026 hPa